createdAt,value
2023-05-09T00:02:35.143Z,12.02
2023-05-09T00:12:37.694Z,11.92
2023-05-09T00:22:41.573Z,11.71
2023-05-09T00:32:43.997Z,11.50
2023-05-09T00:42:46.954Z,11.32
2023-05-09T00:52:49.347Z,11.17
2023-05-09T01:02:54.468Z,11.06
2023-05-09T01:13:05.108Z,10.93
2023-05-09T01:23:14.007Z,10.81
2023-05-09T01:33:18.566Z,10.73
2023-05-09T01:43:22.074Z,10.68
2023-05-09T01:53:24.727Z,10.67
2023-05-09T02:03:28.044Z,10.61
2023-05-09T02:13:30.312Z,10.59
2023-05-09T02:23:32.485Z,10.64
2023-05-09T02:33:34.926Z,10.70
2023-05-09T02:43:37.508Z,10.73
2023-05-09T02:53:39.771Z,10.73
2023-05-09T03:03:42.071Z,10.67
2023-05-09T03:13:44.517Z,10.66
2023-05-09T03:23:46.702Z,10.66
2023-05-09T03:33:48.997Z,10.66
2023-05-09T03:43:51.465Z,10.66
2023-05-09T03:53:54.030Z,10.70
2023-05-09T04:03:57.998Z,10.74
2023-05-09T04:14:00.419Z,10.91
2023-05-09T04:24:02.888Z,11.11
2023-05-09T04:34:05.260Z,11.34
2023-05-09T04:44:08.499Z,11.48
2023-05-09T04:54:11.121Z,11.55
2023-05-09T05:04:13.611Z,11.62
2023-05-09T05:14:16.169Z,11.75
2023-05-09T05:24:18.610Z,11.88
2023-05-09T05:34:21.176Z,12.07
2023-05-09T05:44:23.960Z,12.31
2023-05-09T05:54:26.403Z,12.61
2023-05-09T06:04:29.317Z,13.01
2023-05-09T06:14:31.924Z,13.30
2023-05-09T06:24:36.107Z,13.59
2023-05-09T06:34:39.982Z,13.82
2023-05-09T06:44:44.149Z,14.41
2023-05-09T06:54:46.760Z,15.15
2023-05-09T07:04:49.596Z,15.49
2023-05-09T07:14:52.052Z,15.89
2023-05-09T07:24:54.648Z,16.40
2023-05-09T07:34:57.149Z,16.81
2023-05-09T07:45:00.915Z,17.43
2023-05-09T07:55:03.598Z,17.95
2023-05-09T08:05:06.364Z,18.34
2023-05-09T08:15:09.194Z,18.97
2023-05-09T08:25:13.162Z,19.30
2023-05-09T08:35:16.285Z,19.72
2023-05-09T08:45:24.580Z,20.13
2023-05-09T08:55:28.061Z,20.54
2023-05-09T09:05:42.357Z,20.85
2023-05-09T09:15:46.625Z,21.23
2023-05-09T09:25:49.318Z,21.49
2023-05-09T09:35:52.705Z,21.76
2023-05-09T09:45:55.181Z,22.34
2023-05-09T09:55:57.907Z,22.87
2023-05-09T10:06:02.352Z,22.87
2023-05-09T10:16:07.388Z,23.36
2023-05-09T10:26:24.227Z,23.50
2023-05-09T10:36:27.311Z,23.82
2023-05-09T10:46:30.717Z,23.97
2023-05-09T10:56:35.173Z,23.85
2023-05-09T11:06:49.994Z,24.23
2023-05-09T11:17:00.204Z,24.03
2023-05-09T11:27:06.523Z,24.50
2023-05-09T11:37:18.869Z,25.03
2023-05-09T11:47:22.477Z,25.70
2023-05-09T11:57:26.003Z,25.63
2023-05-09T12:07:29.936Z,25.50
2023-05-09T12:17:33.222Z,24.72
2023-05-09T12:27:37.487Z,24.48
2023-05-09T12:37:40.703Z,24.24
2023-05-09T12:47:43.422Z,24.03
2023-05-09T12:57:58.163Z,23.86
2023-05-09T13:08:00.733Z,23.57
2023-05-09T13:18:03.594Z,22.95
2023-05-09T13:28:06.526Z,22.66
2023-05-09T13:38:09.175Z,22.46
2023-05-09T13:48:12.305Z,22.00
2023-05-09T13:58:15.334Z,21.21
2023-05-09T14:08:18.629Z,20.15
2023-05-09T14:18:22.951Z,18.76
2023-05-09T14:28:26.416Z,18.05
2023-05-09T14:38:30.966Z,18.14
2023-05-09T14:48:41.864Z,18.22
2023-05-09T14:58:44.663Z,18.21
2023-05-09T15:08:47.953Z,17.79
2023-05-09T15:18:50.655Z,17.67
2023-05-09T15:28:53.211Z,17.66
2023-05-09T15:38:55.907Z,17.63
2023-05-09T15:48:58.936Z,17.52
2023-05-09T15:59:01.528Z,17.47
2023-05-09T16:09:05.195Z,17.51
2023-05-09T16:19:08.116Z,17.54
2023-05-09T16:29:11.099Z,17.25
2023-05-09T16:39:13.816Z,16.96
2023-05-09T16:49:16.292Z,16.78
2023-05-09T16:59:20.590Z,16.62
2023-05-09T17:09:23.408Z,16.46
2023-05-09T17:19:26.213Z,16.35
2023-05-09T17:29:31.273Z,16.19
2023-05-09T17:39:34.138Z,15.89
2023-05-09T17:49:37.020Z,15.59
2023-05-09T17:59:42.040Z,15.46
2023-05-09T18:09:44.642Z,15.30
2023-05-09T18:19:47.434Z,15.13
2023-05-09T18:29:50.497Z,14.88
2023-05-09T18:39:53.782Z,14.70
2023-05-09T18:49:56.549Z,14.53
2023-05-09T19:00:00.277Z,14.30
2023-05-09T19:10:04.978Z,14.15
2023-05-09T19:20:09.492Z,14.05
2023-05-09T19:30:15.873Z,13.95
2023-05-09T19:40:18.603Z,13.85
2023-05-09T19:50:21.638Z,13.79
2023-05-09T20:00:24.232Z,13.71
2023-05-09T20:10:26.954Z,13.65
2023-05-09T20:20:32.708Z,13.61
2023-05-09T20:30:35.305Z,13.58
2023-05-09T20:40:38.085Z,13.56
2023-05-09T20:50:41.878Z,13.53
2023-05-09T21:00:47.793Z,13.48
2023-05-09T21:11:02.242Z,13.44
2023-05-09T21:21:08.646Z,13.37
2023-05-09T21:31:11.621Z,13.27
2023-05-09T21:41:14.210Z,13.22
2023-05-09T21:51:16.656Z,13.17
2023-05-09T22:01:18.991Z,13.14
2023-05-09T22:11:34.041Z,13.07
2023-05-09T22:21:41.821Z,12.94
2023-05-09T22:31:44.843Z,12.83
2023-05-09T22:41:47.184Z,12.67
2023-05-09T22:51:49.556Z,12.58
2023-05-09T23:01:53.415Z,12.51
2023-05-09T23:11:56.453Z,12.51
2023-05-09T23:21:59.885Z,12.33
2023-05-09T23:32:02.416Z,12.28
2023-05-09T23:42:04.883Z,12.24
2023-05-09T23:52:07.933Z,12.10
